createdAt,value
2022-10-22T00:00:51.481Z,2.33
2022-10-22T00:03:18.867Z,2.15
2022-10-22T00:05:47.309Z,2.33
2022-10-22T00:08:14.930Z,2.38
2022-10-22T00:10:42.491Z,2.67
2022-10-22T00:13:11.305Z,2.55
2022-10-22T00:15:38.857Z,2.28
2022-10-22T00:18:06.358Z,2.65
2022-10-22T00:20:33.989Z,2.45
2022-10-22T00:23:01.502Z,2.80
2022-10-22T00:25:29.069Z,1.95
2022-10-22T00:27:56.490Z,1.95
2022-10-22T00:30:23.865Z,1.63
2022-10-22T00:32:51.244Z,2.30
2022-10-22T00:35:18.826Z,1.95
2022-10-22T00:37:46.223Z,1.77
2022-10-22T00:40:13.814Z,1.85
2022-10-22T00:42:41.576Z,1.83
2022-10-22T00:45:12.269Z,2.15
2022-10-22T00:47:42.731Z,1.75
2022-10-22T00:50:18.141Z,1.92
2022-10-22T00:52:45.844Z,2.15
2022-10-22T00:55:19.284Z,1.80
2022-10-22T00:57:47.326Z,2.35
2022-10-22T01:00:15.449Z,2.38
2022-10-22T01:02:43.242Z,2.75
2022-10-22T01:05:11.036Z,3.00
2022-10-22T01:07:43.197Z,2.78
2022-10-22T01:10:10.804Z,2.60
2022-10-22T01:12:53.551Z,2.75
2022-10-22T01:15:32.858Z,2.40
2022-10-22T01:18:07.321Z,2.80
2022-10-22T01:20:53.383Z,2.35
2022-10-22T01:23:48.375Z,2.75
2022-10-22T01:26:30.524Z,3.00
2022-10-22T01:29:15.795Z,2.65
2022-10-22T01:31:51.599Z,3.15
2022-10-22T01:34:19.888Z,3.45
2022-10-22T01:36:49.631Z,3.72
2022-10-22T01:39:17.565Z,3.17
2022-10-22T01:41:47.808Z,3.50
2022-10-22T01:44:25.718Z,2.90
2022-10-22T01:47:15.710Z,2.50
2022-10-22T01:49:46.081Z,2.55
2022-10-22T01:52:45.894Z,2.75
2022-10-22T01:55:31.260Z,2.53
2022-10-22T01:58:07.606Z,2.92
2022-10-22T02:00:39.956Z,2.70
2022-10-22T02:03:18.630Z,2.88
2022-10-22T02:05:54.034Z,2.47
2022-10-22T02:08:25.374Z,2.50
2022-10-22T02:10:54.536Z,3.25
2022-10-22T02:13:27.103Z,2.70
2022-10-22T02:15:55.921Z,2.80
2022-10-22T02:18:27.991Z,2.88
2022-10-22T02:20:56.180Z,2.58
2022-10-22T02:23:23.936Z,3.92
2022-10-22T02:26:00.043Z,3.13
2022-10-22T02:28:28.737Z,3.35
2022-10-22T02:31:09.446Z,3.72
2022-10-22T02:33:42.940Z,2.67
2022-10-22T02:36:11.586Z,2.50
2022-10-22T02:38:40.815Z,2.25
2022-10-22T02:41:08.616Z,2.22
2022-10-22T02:43:43.936Z,2.90
2022-10-22T02:46:12.263Z,2.80
2022-10-22T02:48:39.713Z,2.85
2022-10-22T02:51:07.070Z,2.17
2022-10-22T02:53:34.487Z,2.00
2022-10-22T02:56:01.867Z,1.88
2022-10-22T02:58:29.303Z,3.13
2022-10-22T03:00:56.740Z,2.63
2022-10-22T03:03:24.117Z,2.42
2022-10-22T03:05:51.682Z,2.17
2022-10-22T03:08:19.223Z,2.33
2022-10-22T03:10:46.743Z,2.22
2022-10-22T03:13:14.074Z,2.92
2022-10-22T03:15:41.446Z,2.08
2022-10-22T03:18:08.931Z,1.92
2022-10-22T03:20:36.443Z,2.05
2022-10-22T03:23:03.909Z,1.98
2022-10-22T03:25:34.555Z,1.65
2022-10-22T03:28:07.035Z,1.67
2022-10-22T03:30:34.517Z,1.50
2022-10-22T03:33:01.967Z,1.77
2022-10-22T03:35:30.489Z,1.70
2022-10-22T03:38:00.806Z,2.78
2022-10-22T03:40:28.311Z,2.22
2022-10-22T03:42:55.843Z,1.52
2022-10-22T03:45:23.317Z,2.20
2022-10-22T03:47:50.740Z,1.60
2022-10-22T03:50:18.625Z,1.65
2022-10-22T03:52:46.011Z,1.73
2022-10-22T03:55:13.412Z,1.30
2022-10-22T03:57:40.993Z,1.88
2022-10-22T04:00:09.483Z,1.92
2022-10-22T04:02:38.130Z,1.50
2022-10-22T04:05:05.998Z,1.70
2022-10-22T04:07:33.527Z,3.00
2022-10-22T04:10:00.945Z,1.30
2022-10-22T04:12:28.320Z,1.60
2022-10-22T04:14:55.799Z,1.50
2022-10-22T04:17:23.448Z,2.05
2022-10-22T04:19:50.817Z,1.77
2022-10-22T04:22:18.252Z,1.67
2022-10-22T04:24:45.662Z,1.65
2022-10-22T04:27:13.026Z,1.80
2022-10-22T04:29:40.375Z,1.73
2022-10-22T04:32:07.802Z,1.98
2022-10-22T04:34:35.181Z,1.90
2022-10-22T04:37:03.227Z,2.05
2022-10-22T04:39:30.816Z,2.33
2022-10-22T04:41:58.184Z,2.05
2022-10-22T04:44:25.594Z,2.58
2022-10-22T04:46:53.288Z,3.85
2022-10-22T04:49:20.780Z,2.83
2022-10-22T04:51:48.224Z,2.90
2022-10-22T04:54:15.656Z,2.25
2022-10-22T04:56:43.024Z,2.75
2022-10-22T04:59:12.732Z,1.95
2022-10-22T05:01:43.333Z,3.10
2022-10-22T05:04:16.322Z,2.78
2022-10-22T05:06:44.262Z,2.30
2022-10-22T05:09:15.213Z,3.08
2022-10-22T05:14:14.909Z,2.58
2022-10-22T05:16:42.673Z,3.08
2022-10-22T05:19:16.943Z,2.30
2022-10-22T05:21:44.549Z,3.25
2022-10-22T05:24:12.318Z,2.25
2022-10-22T05:26:39.925Z,3.03
2022-10-22T05:29:07.512Z,2.45
2022-10-22T05:31:35.708Z,2.58
2022-10-22T05:34:03.245Z,2.90
2022-10-22T05:36:30.799Z,2.80
2022-10-22T05:38:58.536Z,3.30
2022-10-22T05:41:28.017Z,3.17
2022-10-22T05:43:57.626Z,2.63
2022-10-22T05:46:27.288Z,3.30
2022-10-22T05:48:57.058Z,3.13
2022-10-22T05:51:25.473Z,2.45
2022-10-22T05:53:55.018Z,3.03
2022-10-22T05:56:23.386Z,3.55
2022-10-22T05:58:51.475Z,3.50
2022-10-22T06:01:20.145Z,2.90
2022-10-22T06:03:48.476Z,4.28
2022-10-22T06:06:22.498Z,2.53
2022-10-22T06:08:51.966Z,2.90
2022-10-22T06:11:20.933Z,3.30
2022-10-22T06:13:49.508Z,2.63
2022-10-22T06:16:17.330Z,3.72
2022-10-22T06:18:44.847Z,2.90
2022-10-22T06:21:14.447Z,2.85
2022-10-22T06:23:42.846Z,4.03
2022-10-22T06:26:10.969Z,4.00
2022-10-22T06:28:38.827Z,3.70
2022-10-22T06:31:06.728Z,4.75
2022-10-22T06:33:34.749Z,3.70
2022-10-22T06:36:11.009Z,4.53
2022-10-22T06:38:39.079Z,4.07
2022-10-22T06:41:16.725Z,3.63
2022-10-22T06:43:46.742Z,4.28
2022-10-22T06:46:20.002Z,3.78
2022-10-22T06:48:59.599Z,4.30
2022-10-22T06:51:27.846Z,4.35
2022-10-22T06:53:57.156Z,5.53
2022-10-22T06:56:26.992Z,4.97
2022-10-22T06:58:56.473Z,4.45
2022-10-22T07:01:29.415Z,4.25
2022-10-22T07:03:57.213Z,4.22
2022-10-22T07:06:25.996Z,4.32
2022-10-22T07:08:57.982Z,4.25
2022-10-22T07:11:31.445Z,4.38
2022-10-22T07:13:59.939Z,4.95
2022-10-22T07:16:31.076Z,4.22
2022-10-22T07:19:01.643Z,4.85
2022-10-22T07:21:30.226Z,4.63
2022-10-22T07:23:59.156Z,4.18
2022-10-22T07:26:30.867Z,4.65
2022-10-22T07:29:00.618Z,3.80
2022-10-22T07:31:28.262Z,4.85
2022-10-22T07:33:55.840Z,4.45
2022-10-22T07:36:23.257Z,3.83
2022-10-22T07:38:56.160Z,4.18
2022-10-22T07:41:23.838Z,3.47
2022-10-22T07:43:51.260Z,4.43
2022-10-22T07:46:19.437Z,4.38
2022-10-22T07:48:47.063Z,3.60
2022-10-22T07:51:15.422Z,4.20
2022-10-22T07:53:43.090Z,3.75
2022-10-22T07:56:10.825Z,4.97
2022-10-22T07:58:38.486Z,4.40
2022-10-22T08:01:06.011Z,4.43
2022-10-22T08:03:34.173Z,5.45
2022-10-22T08:06:02.438Z,3.97
2022-10-22T08:08:30.931Z,5.00
2022-10-22T08:11:00.528Z,4.78
2022-10-22T08:13:30.392Z,4.68
2022-10-22T08:16:00.338Z,3.78
2022-10-22T08:18:28.538Z,4.32
2022-10-22T08:20:56.349Z,3.80
2022-10-22T08:23:27.532Z,4.28
2022-10-22T08:25:57.238Z,5.32
2022-10-22T08:28:25.397Z,4.05
2022-10-22T08:30:52.943Z,5.32
2022-10-22T08:33:20.498Z,4.00
2022-10-22T08:35:49.743Z,4.35
2022-10-22T08:38:18.241Z,5.13
2022-10-22T08:40:51.442Z,3.88
2022-10-22T08:43:18.816Z,4.05
2022-10-22T08:46:33.754Z,4.07
2022-10-22T08:49:04.263Z,3.60
2022-10-22T08:51:35.827Z,4.70
2022-10-22T08:54:31.853Z,4.72
2022-10-22T08:57:36.708Z,4.75
2022-10-22T09:00:10.772Z,4.43
2022-10-22T09:03:00.264Z,3.78
2022-10-22T09:05:36.622Z,3.55
2022-10-22T09:08:04.804Z,4.22
2022-10-22T09:10:36.814Z,4.30
2022-10-22T09:13:04.321Z,4.35
2022-10-22T09:15:31.732Z,4.47
2022-10-22T09:18:12.741Z,4.22
2022-10-22T09:23:34.047Z,4.47
2022-10-22T09:26:01.908Z,3.42
2022-10-22T09:28:29.421Z,4.03
2022-10-22T09:33:31.805Z,3.20
2022-10-22T09:36:06.842Z,4.10
2022-10-22T09:38:49.765Z,4.07
2022-10-22T09:41:19.312Z,3.88
2022-10-22T09:43:48.247Z,3.50
2022-10-22T09:46:19.987Z,3.70
2022-10-22T09:48:55.318Z,3.72
2022-10-22T09:51:25.404Z,3.47
2022-10-22T09:53:58.594Z,3.27
2022-10-22T09:56:40.943Z,3.50
2022-10-22T09:59:17.507Z,3.53
2022-10-22T10:01:45.378Z,3.03
2022-10-22T10:04:15.899Z,3.72
2022-10-22T10:06:44.748Z,3.38
2022-10-22T10:09:18.470Z,3.80
2022-10-22T10:11:54.990Z,3.92
2022-10-22T10:15:02.965Z,4.03
2022-10-22T10:17:41.758Z,3.17
2022-10-22T10:20:24.576Z,3.83
2022-10-22T10:23:30.077Z,3.90
2022-10-22T10:26:25.370Z,4.13
2022-10-22T10:29:16.078Z,3.70
2022-10-22T10:31:58.213Z,3.50
2022-10-22T10:34:34.542Z,3.55
2022-10-22T10:37:25.422Z,3.17
2022-10-22T10:40:18.971Z,4.22
2022-10-22T10:43:04.356Z,3.30
2022-10-22T10:49:20.179Z,3.08
2022-10-22T10:52:07.859Z,3.13
2022-10-22T10:54:52.557Z,2.90
2022-10-22T10:57:29.018Z,3.17
2022-10-22T11:00:22.294Z,3.25
2022-10-22T11:03:12.948Z,3.13
2022-10-22T11:06:02.958Z,4.13
2022-10-22T11:08:38.243Z,3.22
2022-10-22T11:14:05.161Z,3.10
2022-10-22T11:16:51.331Z,3.35
2022-10-22T11:19:51.654Z,3.03
2022-10-22T11:25:12.475Z,3.65
2022-10-22T11:27:47.710Z,2.95
2022-10-22T11:30:21.364Z,3.42
2022-10-22T11:33:07.061Z,3.38
2022-10-22T11:35:38.837Z,2.63
2022-10-22T11:38:09.725Z,2.90
2022-10-22T11:40:39.421Z,3.15
2022-10-22T11:43:09.614Z,3.25
2022-10-22T11:45:40.998Z,2.92
2022-10-22T11:48:08.405Z,3.50
2022-10-22T11:50:42.642Z,2.70
2022-10-22T11:53:13.101Z,2.92
2022-10-22T11:55:45.840Z,3.33
2022-10-22T11:58:28.858Z,3.22
2022-10-22T12:01:02.351Z,3.20
2022-10-22T12:03:34.681Z,3.50
2022-10-22T12:06:15.684Z,3.03
2022-10-22T12:08:46.639Z,3.05
2022-10-22T12:13:58.777Z,2.83
2022-10-22T12:16:56.151Z,3.05
2022-10-22T12:19:31.279Z,3.08
2022-10-22T12:22:00.740Z,3.28
2022-10-22T12:24:35.456Z,3.33
2022-10-22T12:27:03.584Z,3.42
2022-10-22T12:29:33.060Z,3.95
2022-10-22T12:32:04.617Z,2.67
2022-10-22T12:34:32.068Z,3.47
2022-10-22T12:36:59.575Z,2.92
2022-10-22T12:39:27.576Z,3.55
2022-10-22T12:41:55.414Z,3.13
2022-10-22T12:44:22.886Z,3.72
2022-10-22T12:46:54.460Z,3.25
2022-10-22T12:49:34.228Z,2.67
2022-10-22T12:52:05.127Z,2.97
2022-10-22T12:54:34.432Z,3.35
2022-10-22T12:57:02.569Z,3.42
2022-10-22T12:59:33.755Z,3.33
2022-10-22T13:02:02.532Z,3.05
2022-10-22T13:04:34.821Z,3.33
2022-10-22T13:07:21.276Z,3.30
2022-10-22T13:09:56.636Z,4.32
2022-10-22T13:12:26.561Z,5.15
2022-10-22T13:14:54.380Z,3.77
2022-10-22T13:17:41.587Z,3.20
2022-10-22T13:20:22.120Z,5.85
2022-10-22T13:22:54.629Z,2.88
2022-10-22T13:25:35.511Z,2.90
2022-10-22T13:28:22.053Z,3.38
2022-10-22T13:30:56.786Z,3.40
2022-10-22T13:33:37.263Z,4.68
2022-10-22T13:36:05.340Z,4.60
2022-10-22T13:38:32.710Z,3.20
2022-10-22T13:41:00.238Z,6.50
2022-10-22T13:43:27.662Z,3.92
2022-10-22T13:45:58.916Z,3.95
2022-10-22T13:48:29.727Z,4.57
2022-10-22T13:53:26.579Z,3.17
2022-10-22T13:55:54.092Z,3.20
2022-10-22T13:58:26.655Z,4.35
2022-10-22T14:00:57.326Z,3.97
2022-10-22T14:03:29.699Z,3.70
2022-10-22T14:05:57.401Z,4.85
2022-10-22T14:08:27.075Z,4.88
2022-10-22T14:10:55.002Z,4.15
2022-10-22T14:13:22.735Z,3.53
2022-10-22T14:15:51.891Z,2.95
2022-10-22T14:18:28.166Z,2.25
2022-10-22T14:20:57.977Z,3.75
2022-10-22T14:23:28.556Z,3.05
2022-10-22T14:25:56.663Z,2.63
2022-10-22T14:28:24.477Z,3.22
2022-10-22T14:30:52.995Z,3.25
2022-10-22T14:33:31.479Z,2.97
2022-10-22T14:36:01.031Z,4.13
2022-10-22T14:38:29.106Z,4.05
2022-10-22T14:40:59.591Z,2.90
2022-10-22T14:43:29.846Z,2.70
2022-10-22T14:45:57.841Z,2.25
2022-10-22T14:48:25.474Z,3.00
2022-10-22T14:50:54.384Z,3.00
2022-10-22T14:53:22.189Z,2.63
2022-10-22T14:55:51.589Z,2.45
2022-10-22T14:58:19.639Z,2.85
2022-10-22T15:00:47.093Z,2.33
2022-10-22T15:03:14.529Z,3.63
2022-10-22T15:05:44.410Z,5.35
2022-10-22T15:08:14.347Z,5.13
2022-10-22T15:10:41.898Z,4.85
2022-10-22T15:13:09.624Z,5.03
2022-10-22T15:15:40.502Z,3.38
2022-10-22T15:18:08.051Z,5.22
2022-10-22T15:20:35.465Z,5.30
2022-10-22T15:23:03.029Z,4.85
2022-10-22T15:25:30.780Z,3.80
2022-10-22T15:28:00.755Z,3.53
2022-10-22T15:30:33.406Z,5.03
2022-10-22T15:33:03.420Z,4.45
2022-10-22T15:35:30.906Z,5.85
2022-10-22T15:37:58.301Z,5.05
2022-10-22T15:40:25.779Z,6.47
2022-10-22T15:42:53.194Z,4.95
2022-10-22T15:45:22.450Z,4.63
2022-10-22T15:47:50.422Z,4.10
2022-10-22T15:50:18.015Z,4.22
2022-10-22T15:52:48.612Z,6.00
2022-10-22T15:55:16.229Z,5.32
2022-10-22T15:57:44.207Z,5.35
2022-10-22T16:00:13.029Z,5.53
2022-10-22T16:02:40.386Z,5.55
2022-10-22T16:05:08.174Z,4.78
2022-10-22T16:07:35.584Z,4.30
2022-10-22T16:10:03.206Z,6.00
2022-10-22T16:12:30.669Z,3.45
2022-10-22T16:14:58.131Z,4.47
2022-10-22T16:17:25.588Z,4.53
2022-10-22T16:19:53.460Z,4.40
2022-10-22T16:22:20.903Z,5.45
2022-10-22T16:24:48.268Z,6.53
2022-10-22T16:27:15.716Z,6.00
2022-10-22T16:29:43.083Z,5.05
2022-10-22T16:32:10.475Z,6.10
2022-10-22T16:34:37.904Z,4.25
2022-10-22T16:37:10.039Z,4.25
2022-10-22T16:39:37.898Z,7.38
2022-10-22T16:42:06.233Z,7.05
2022-10-22T16:44:33.645Z,6.70
2022-10-22T16:47:01.122Z,6.13
2022-10-22T16:49:28.487Z,8.25
2022-10-22T16:51:55.943Z,8.02
2022-10-22T16:54:23.367Z,7.28
2022-10-22T16:56:51.387Z,5.30
2022-10-22T16:59:18.754Z,4.40
2022-10-22T17:01:46.183Z,5.32
2022-10-22T17:04:13.658Z,5.88
2022-10-22T17:06:41.083Z,8.32
2022-10-22T17:09:08.602Z,9.68
2022-10-22T17:11:39.132Z,9.27
2022-10-22T17:14:08.960Z,11.43
2022-10-22T17:16:36.429Z,10.65
2022-10-22T17:19:04.505Z,10.70
2022-10-22T17:21:32.086Z,7.07
2022-10-22T17:23:59.570Z,8.30
2022-10-22T17:26:27.164Z,11.23
2022-10-22T17:28:55.191Z,9.20
2022-10-22T17:31:32.866Z,8.75
2022-10-22T17:34:00.473Z,10.50
2022-10-22T17:36:33.433Z,7.97
2022-10-22T17:39:06.261Z,6.55
2022-10-22T17:41:37.177Z,8.27
2022-10-22T17:44:09.425Z,7.68
2022-10-22T17:46:38.482Z,15.95
2022-10-22T17:49:12.275Z,7.88
2022-10-22T17:51:40.286Z,6.22
2022-10-22T17:54:09.904Z,7.47
2022-10-22T17:56:40.232Z,9.93
2022-10-22T17:59:10.725Z,10.10
2022-10-22T18:01:43.378Z,6.72
2022-10-22T18:04:14.413Z,9.45
2022-10-22T18:06:42.074Z,11.48
2022-10-22T18:09:13.302Z,25.15
2022-10-22T18:11:43.673Z,13.55
2022-10-22T18:14:11.020Z,10.93
2022-10-22T18:16:38.537Z,22.05
2022-10-22T18:19:05.963Z,6.88
2022-10-22T18:21:33.347Z,8.10
2022-10-22T18:24:00.695Z,8.18
2022-10-22T18:26:28.146Z,8.38
2022-10-22T18:28:57.580Z,6.00
2022-10-22T18:31:27.004Z,11.60
2022-10-22T18:33:55.556Z,9.45
2022-10-22T18:36:25.602Z,14.35
2022-10-22T18:38:58.342Z,12.98
2022-10-22T18:41:27.047Z,9.93
2022-10-22T18:43:56.602Z,8.00
2022-10-22T18:46:25.084Z,11.43
2022-10-22T18:48:56.822Z,14.52
2022-10-22T18:51:25.932Z,8.80
2022-10-22T18:54:05.771Z,8.43
2022-10-22T18:56:44.240Z,13.07
2022-10-22T18:59:26.636Z,10.63
2022-10-22T19:01:55.251Z,10.95
2022-10-22T19:04:22.717Z,15.35
2022-10-22T19:06:50.499Z,11.95
2022-10-22T19:09:18.256Z,8.35
2022-10-22T19:11:46.056Z,8.10
2022-10-22T19:14:14.678Z,9.35
2022-10-22T19:16:42.071Z,11.30
2022-10-22T19:19:09.617Z,9.32
2022-10-22T19:21:38.102Z,10.73
2022-10-22T19:24:06.571Z,7.82
2022-10-22T19:26:34.297Z,5.95
2022-10-22T19:29:02.031Z,9.35
2022-10-22T19:31:31.124Z,7.50
2022-10-22T19:34:00.506Z,10.15
2022-10-22T19:36:30.059Z,6.85
2022-10-22T19:38:59.032Z,5.40
2022-10-22T19:41:28.898Z,29.70
2022-10-22T19:43:58.601Z,21.13
2022-10-22T19:46:27.984Z,52.70
2022-10-22T19:48:57.128Z,45.58
2022-10-22T19:51:27.381Z,18.90
2022-10-22T19:54:07.236Z,8.73
2022-10-22T19:56:37.562Z,8.65
2022-10-22T19:59:05.809Z,8.85
2022-10-22T20:01:33.389Z,7.28
2022-10-22T20:04:01.566Z,6.85
2022-10-22T20:06:29.983Z,6.63
2022-10-22T20:08:57.746Z,7.22
2022-10-22T20:11:27.896Z,7.97
2022-10-22T20:13:56.715Z,6.63
2022-10-22T20:16:28.445Z,6.95
2022-10-22T20:19:00.865Z,5.45
2022-10-22T20:21:28.359Z,5.57
2022-10-22T20:23:57.327Z,5.95
2022-10-22T20:26:27.898Z,6.88
2022-10-22T20:28:56.490Z,8.45
2022-10-22T20:31:26.946Z,7.35
2022-10-22T20:33:57.904Z,7.70
2022-10-22T20:36:26.438Z,8.45
2022-10-22T20:39:00.169Z,7.20
2022-10-22T20:41:28.440Z,6.65
2022-10-22T20:43:56.045Z,6.43
2022-10-22T20:46:29.944Z,7.13
2022-10-22T20:49:01.572Z,6.70
2022-10-22T20:51:29.497Z,6.93
2022-10-22T20:53:57.323Z,7.07
2022-10-22T20:56:24.791Z,5.63
2022-10-22T20:59:03.827Z,5.20
2022-10-22T21:01:34.152Z,5.93
2022-10-22T21:04:01.675Z,5.23
2022-10-22T21:06:30.030Z,5.22
2022-10-22T21:08:57.834Z,5.55
2022-10-22T21:11:25.312Z,6.13
2022-10-22T21:13:52.798Z,5.68
2022-10-22T21:16:20.235Z,7.55
2022-10-22T21:18:48.242Z,5.78
2022-10-22T21:21:17.548Z,6.20
2022-10-22T21:23:45.305Z,5.43
2022-10-22T21:26:12.803Z,9.40
2022-10-22T21:28:40.243Z,9.90
2022-10-22T21:31:10.773Z,7.78
2022-10-22T21:33:39.766Z,7.78
2022-10-22T21:36:09.086Z,5.80
2022-10-22T21:38:38.029Z,6.63
2022-10-22T21:41:07.282Z,6.88
2022-10-22T21:43:36.947Z,5.60
2022-10-22T21:46:19.002Z,5.75
2022-10-22T21:48:47.393Z,5.63
2022-10-22T21:51:17.694Z,5.75
2022-10-22T21:53:46.114Z,6.13
2022-10-22T21:56:22.072Z,5.47
2022-10-22T21:58:50.206Z,4.55
2022-10-22T22:01:18.344Z,6.45
2022-10-22T22:03:49.046Z,6.55
2022-10-22T22:06:21.309Z,4.57
2022-10-22T22:08:50.881Z,5.10
2022-10-22T22:11:21.376Z,5.15
2022-10-22T22:13:49.404Z,4.35
2022-10-22T22:16:22.529Z,5.32
2022-10-22T22:18:53.058Z,4.82
2022-10-22T22:21:21.985Z,5.43
2022-10-22T22:23:50.296Z,5.28
2022-10-22T22:26:25.212Z,4.25
2022-10-22T22:28:56.813Z,5.90
2022-10-22T22:31:31.863Z,5.30
2022-10-22T22:34:00.900Z,5.20
2022-10-22T22:36:34.276Z,5.35
2022-10-22T22:39:02.554Z,5.03
2022-10-22T22:41:30.091Z,5.10
2022-10-22T22:43:57.486Z,5.43
2022-10-22T22:46:25.117Z,6.00
2022-10-22T22:48:52.673Z,5.80
2022-10-22T22:51:20.311Z,5.95
2022-10-22T22:53:48.001Z,6.13
2022-10-22T22:56:18.611Z,5.63
2022-10-22T22:58:46.558Z,6.28
2022-10-22T23:01:21.324Z,5.75
2022-10-22T23:04:13.269Z,6.75
2022-10-22T23:06:40.794Z,6.28
2022-10-22T23:09:11.045Z,5.85
2022-10-22T23:11:39.723Z,5.55
2022-10-22T23:14:10.263Z,5.35
2022-10-22T23:16:40.140Z,6.65
2022-10-22T23:19:07.720Z,6.10
2022-10-22T23:21:37.907Z,5.97
2022-10-22T23:24:08.742Z,4.85
2022-10-22T23:29:15.229Z,4.03
2022-10-22T23:31:44.425Z,5.15
2022-10-22T23:34:14.115Z,5.43
2022-10-22T23:36:41.498Z,5.00
2022-10-22T23:39:11.293Z,5.07
2022-10-22T23:41:39.085Z,4.68
2022-10-22T23:44:08.022Z,4.20
2022-10-22T23:46:38.541Z,5.10
2022-10-22T23:49:07.869Z,4.18
2022-10-22T23:51:35.978Z,4.13
2022-10-22T23:54:07.219Z,4.03
2022-10-22T23:56:35.748Z,4.47
2022-10-22T23:59:04.147Z,5.10
